Time;durP1;ratioP1;P1;durP2;ratioP2;P2;SDS_P1;SDS_P2;PMS_P1;PMS_P2;Temp;Humidity;BMP_temperature;BMP_pressure;BME280_temperature;BME280_humidity;BME280_pressure;Samples;Min_cycle;Max_cycle;Signal;HPM_P1;HPM_P2
2021/10/15 00:01:41;;;;;;;12.10;2.80;;;;;;;9.58;83.29;100530.60;113005;1193;22434;-58
2021/10/15 00:04:13;;;;;;;10.70;2.60;;;;;;;9.58;83.21;100531.14;113104;1193;25125;-55
2021/10/15 00:06:44;;;;;;;11.90;2.20;;;;;;;9.57;83.36;100535.70;113067;1198;25043;-58
2021/10/15 00:09:15;;;;;;;11.50;2.20;;;;;;;9.57;83.42;100541.52;113153;1198;22527;-57
2021/10/15 00:11:45;;;;;;;8.30;2.00;;;;;;;9.58;83.36;100536.77;113030;1193;23049;-58
2021/10/15 00:14:17;;;;;;;7.30;1.80;;;;;;;9.58;83.45;100531.67;113020;1198;22439;-58
2021/10/15 00:16:48;;;;;;;9.90;2.10;;;;;;;9.59;83.45;100533.25;113208;1198;22545;-58
2021/10/15 00:19:20;;;;;;;8.30;1.90;;;;;;;9.59;83.49;100532.27;113037;1198;22437;-58
2021/10/15 00:21:51;;;;;;;8.30;1.90;;;;;;;9.60;83.38;100528.58;112978;1198;25163;-58
2021/10/15 00:24:22;;;;;;;8.80;1.80;;;;;;;9.60;83.37;100524.01;113069;1198;22409;-57
2021/10/15 00:26:53;;;;;;;8.30;2.20;;;;;;;9.60;83.38;100524.02;112982;1198;23761;-58
2021/10/15 00:29:23;;;;;;;9.20;1.80;;;;;;;9.61;83.46;100518.26;113035;1198;22442;-58
2021/10/15 00:31:54;;;;;;;6.60;1.60;;;;;;;9.61;83.50;100518.25;113029;1193;25309;-59
2021/10/15 00:34:25;;;;;;;5.70;1.60;;;;;;;9.62;83.47;100518.80;113328;1198;22547;-58
2021/10/15 00:36:56;;;;;;;6.50;1.50;;;;;;;9.62;83.41;100515.00;113102;1198;25119;-59
2021/10/15 00:39:27;;;;;;;6.80;1.50;;;;;;;9.62;83.45;100510.17;113002;1198;24129;-58
2021/10/15 00:41:57;;;;;;;7.90;1.90;;;;;;;9.64;83.39;100505.72;113002;1193;24068;-57
2021/10/15 00:44:29;;;;;;;10.10;2.00;;;;;;;9.64;83.41;100502.83;112907;1192;22430;-56
2021/10/15 00:47:00;;;;;;;6.60;1.70;;;;;;;9.64;83.42;100500.26;112880;1193;24054;-56
2021/10/15 00:49:31;;;;;;;9.50;2.10;;;;;;;9.65;83.63;100504.84;113195;1198;23762;-57
2021/10/15 00:52:02;;;;;;;8.00;1.80;;;;;;;9.66;83.56;100499.95;113329;1198;23814;-61
2021/10/15 00:54:33;;;;;;;6.50;1.40;;;;;;;9.67;83.44;100502.11;113033;1198;25092;-58
2021/10/15 00:57:07;;;;;;;7.50;1.70;;;;;;;9.68;83.61;100502.95;113178;1198;24060;-57
2021/10/15 00:59:38;;;;;;;6.30;1.60;;;;;;;9.69;83.56;100499.23;113093;1184;24091;-56
2021/10/15 01:02:09;;;;;;;8.30;1.80;;;;;;;9.70;83.54;100497.05;112947;1198;25504;-56
2021/10/15 01:04:41;;;;;;;8.30;2.10;;;;;;;9.70;83.60;100498.08;112967;1198;25065;-56
2021/10/15 01:07:11;;;;;;;7.00;1.50;;;;;;;9.70;83.58;100494.89;113053;1198;25341;-56
2021/10/15 01:09:43;;;;;;;7.90;1.70;;;;;;;9.71;83.62;100497.46;113048;1198;22656;-59
2021/10/15 01:12:13;;;;;;;7.50;1.90;;;;;;;9.72;83.58;100489.92;112921;1198;25030;-59
2021/10/15 01:14:44;;;;;;;7.60;2.10;;;;;;;9.73;83.65;100488.94;113040;1193;25122;-56
2021/10/15 01:17:15;;;;;;;7.60;2.00;;;;;;;9.74;83.55;100485.25;112971;1198;25210;-58
2021/10/15 01:19:46;;;;;;;9.20;2.80;;;;;;;9.74;83.54;100484.44;113352;1198;24190;-56
2021/10/15 01:22:18;;;;;;;8.20;2.00;;;;;;;9.75;83.74;100486.39;113094;1198;22430;-56
2021/10/15 01:24:51;;;;;;;10.50;2.50;;;;;;;9.76;83.67;100483.33;113047;1198;25107;-57
2021/10/15 01:27:23;;;;;;;13.30;2.70;;;;;;;9.77;83.57;100481.91;113155;1198;22430;-59
2021/10/15 01:29:54;;;;;;;12.50;3.20;;;;;;;9.78;83.49;100479.38;113168;1198;22435;-58
2021/10/15 01:32:25;;;;;;;9.90;2.40;;;;;;;9.81;83.56;100476.10;113347;1198;25337;-58
2021/10/15 01:34:56;;;;;;;10.70;2.60;;;;;;;9.82;83.55;100472.98;112966;1193;25026;-58
2021/10/15 01:37:27;;;;;;;13.00;3.60;;;;;;;9.84;83.59;100474.70;113010;1192;24053;-58
2021/10/15 01:39:58;;;;;;;11.60;3.60;;;;;;;9.84;83.57;100472.04;113329;1198;25033;-56
2021/10/15 01:45:19;;;;;;;9.00;3.10;;;;;;;9.86;83.60;100469.14;112978;1198;25169;-60
2021/10/15 01:47:51;;;;;;;10.20;2.90;;;;;;;9.87;83.52;100468.39;112964;1192;24150;-59
2021/10/15 01:50:25;;;;;;;10.40;3.20;;;;;;;9.88;83.49;100467.40;113050;1198;22472;-58
2021/10/15 01:52:56;;;;;;;11.00;3.40;;;;;;;9.89;83.50;100467.52;113206;1198;22429;-58
2021/10/15 01:55:27;;;;;;;11.70;2.60;;;;;;;9.89;83.39;100462.77;113107;1198;25181;-59
2021/10/15 01:57:58;;;;;;;13.70;3.30;;;;;;;9.90;83.43;100459.90;113055;1192;24053;-58
2021/10/15 02:00:29;;;;;;;11.30;3.00;;;;;;;9.91;83.34;100460.33;112898;1198;24087;-58
2021/10/15 02:03:00;;;;;;;12.80;3.80;;;;;;;9.92;83.45;100459.33;113024;1193;24161;-59
2021/10/15 02:05:31;;;;;;;9.30;3.30;;;;;;;9.92;83.39;100459.70;112920;1198;25498;-59
2021/10/15 02:08:03;;;;;;;12.50;4.00;;;;;;;9.92;83.43;100458.68;113159;1198;26382;-58
2021/10/15 02:10:34;;;;;;;12.70;3.90;;;;;;;9.93;83.23;100455.61;113296;1198;26320;-57
2021/10/15 02:13:05;;;;;;;10.80;3.80;;;;;;;9.93;83.34;100454.81;113218;1198;25013;-58
2021/10/15 02:15:36;;;;;;;11.10;3.10;;;;;;;9.94;83.34;100452.95;112968;1198;22430;-58
2021/10/15 02:18:07;;;;;;;10.90;3.40;;;;;;;9.94;83.37;100452.77;112914;1193;22463;-57
2021/10/15 02:20:38;;;;;;;12.00;3.90;;;;;;;9.95;83.42;100452.89;113235;1198;24254;-58
2021/10/15 02:23:13;;;;;;;11.90;3.70;;;;;;;9.95;83.23;100450.81;113040;1198;22938;-57
2021/10/15 02:25:43;;;;;;;14.70;3.60;;;;;;;9.96;83.57;100451.23;112987;1198;22428;-58
2021/10/15 02:28:14;;;;;;;13.10;3.90;;;;;;;9.96;83.62;100451.73;113120;1198;25140;-59
2021/10/15 02:30:47;;;;;;;11.30;3.60;;;;;;;9.95;83.57;100447.25;113180;1198;24105;-58
2021/10/15 02:33:19;;;;;;;11.60;3.90;;;;;;;9.94;83.63;100447.74;113237;1198;23001;-56
2021/10/15 02:35:49;;;;;;;16.80;3.30;;;;;;;9.94;83.60;100446.48;113237;1198;22420;-54
2021/10/15 02:38:21;;;;;;;11.20;3.80;;;;;;;9.93;83.52;100448.20;113178;1198;22519;-58
2021/10/15 02:40:52;;;;;;;12.50;3.50;;;;;;;9.92;83.68;100449.66;113177;1198;22429;-55
2021/10/15 02:43:23;;;;;;;10.50;4.10;;;;;;;9.92;83.69;100453.02;112925;1198;22445;-57
2021/10/15 02:45:54;;;;;;;12.00;4.60;;;;;;;9.92;83.75;100451.74;113086;1198;25394;-58
2021/10/15 02:48:24;;;;;;;11.80;3.90;;;;;;;9.92;83.63;100443.56;113089;1196;22906;-59
2021/10/15 02:50:55;;;;;;;15.10;4.00;;;;;;;9.91;83.51;100440.77;112999;1190;25016;-58
2021/10/15 02:53:26;;;;;;;11.70;3.90;;;;;;;9.92;83.65;100440.23;113067;1198;22429;-58
2021/10/15 02:55:58;;;;;;;10.70;3.30;;;;;;;9.91;83.72;100439.66;113099;1198;25062;-55
2021/10/15 02:58:29;;;;;;;14.10;4.70;;;;;;;9.92;83.67;100435.82;113010;1198;23776;-57
2021/10/15 03:01:00;;;;;;;12.40;4.00;;;;;;;9.92;83.58;100435.66;113549;1198;25058;-57
2021/10/15 03:03:31;;;;;;;14.20;4.50;;;;;;;9.92;83.70;100440.04;113270;1192;22435;-57
2021/10/15 03:06:02;;;;;;;12.90;4.00;;;;;;;9.92;83.69;100440.19;113181;1198;22985;-58
2021/10/15 03:08:34;;;;;;;13.20;4.60;;;;;;;9.93;83.66;100436.95;113210;1198;25083;-58
2021/10/15 03:11:06;;;;;;;14.30;5.20;;;;;;;9.91;83.56;100438.15;113267;1184;24082;-58
2021/10/15 03:13:38;;;;;;;15.20;5.00;;;;;;;9.90;83.65;100438.30;113148;1190;24155;-58
2021/10/15 03:16:08;;;;;;;13.50;4.30;;;;;;;9.89;83.51;100433.33;112963;1193;22421;-59
2021/10/15 03:18:40;;;;;;;17.60;5.80;;;;;;;9.88;83.56;100431.30;112997;1198;25068;-57
2021/10/15 03:21:11;;;;;;;13.50;4.70;;;;;;;9.87;83.80;100426.66;113072;1193;22429;-58
2021/10/15 03:23:42;;;;;;;15.30;5.30;;;;;;;9.85;83.76;100422.83;113132;1193;22548;-55
2021/10/15 03:26:13;;;;;;;16.80;6.40;;;;;;;9.84;83.75;100422.39;112974;1198;22534;-58
2021/10/15 03:28:44;;;;;;;14.80;5.20;;;;;;;9.84;83.79;100420.27;113189;1198;23176;-58
2021/10/15 03:31:14;;;;;;;17.20;6.00;;;;;;;9.83;83.83;100425.87;112995;1193;24241;-59
2021/10/15 03:33:46;;;;;;;17.10;5.60;;;;;;;9.83;83.73;100425.66;113194;1198;25306;-58
2021/10/15 03:36:17;;;;;;;14.20;5.00;;;;;;;9.81;83.91;100420.30;113104;1198;22455;-60
2021/10/15 03:38:48;;;;;;;15.10;5.20;;;;;;;9.82;84.03;100421.67;113170;1198;22421;-58
2021/10/15 03:41:19;;;;;;;16.30;6.40;;;;;;;9.80;83.94;100418.95;113143;1193;22486;-57
2021/10/15 03:43:50;;;;;;;17.90;7.00;;;;;;;9.79;83.96;100419.14;113112;1198;22433;-58
2021/10/15 03:46:22;;;;;;;19.00;7.10;;;;;;;9.78;84.02;100414.90;113251;1198;23810;-58
2021/10/15 03:48:53;;;;;;;19.30;6.90;;;;;;;9.77;83.96;100410.56;113255;1198;22454;-57
2021/10/15 03:51:24;;;;;;;18.70;6.60;;;;;;;9.76;84.05;100407.88;113054;1192;22420;-56
2021/10/15 03:53:55;;;;;;;20.70;6.60;;;;;;;9.77;84.03;100414.92;113130;1190;22439;-58
2021/10/15 03:56:26;;;;;;;18.00;6.40;;;;;;;9.77;83.93;100415.39;113266;1190;24152;-61
2021/10/15 03:58:57;;;;;;;18.60;7.40;;;;;;;9.77;83.95;100416.81;113163;1198;22458;-59
2021/10/15 04:01:28;;;;;;;18.10;7.60;;;;;;;9.78;84.02;100415.77;113361;1193;25142;-58
2021/10/15 04:03:59;;;;;;;18.60;6.80;;;;;;;9.77;84.01;100416.66;113029;1198;22550;-56
2021/10/15 04:06:30;;;;;;;17.80;8.00;;;;;;;9.76;84.00;100415.11;113074;1198;24174;-58
2021/10/15 04:09:00;;;;;;;19.10;7.60;;;;;;;9.76;83.93;100408.46;113088;1198;24202;-59
2021/10/15 04:11:31;;;;;;;16.30;6.30;;;;;;;9.76;84.00;100401.61;113013;1192;24084;-59
2021/10/15 04:14:02;;;;;;;18.20;7.50;;;;;;;9.75;83.95;100400.34;113183;1198;25054;-61
2021/10/15 04:16:33;;;;;;;18.00;7.80;;;;;;;9.75;83.92;100402.57;113035;1198;22408;-55
2021/10/15 04:19:05;;;;;;;18.30;7.30;;;;;;;9.75;84.02;100402.98;113153;1198;22451;-58
2021/10/15 04:21:43;;;;;;;17.30;7.20;;;;;;;9.75;84.01;100406.66;113211;1198;24189;-56
2021/10/15 04:24:24;;;;;;;19.50;7.90;;;;;;;9.75;84.03;100410.01;114993;1198;22420;-58
2021/10/15 04:26:59;;;;;;;21.10;7.70;;;;;;;9.74;83.93;100411.00;113205;1192;22542;-57
2021/10/15 04:29:30;;;;;;;18.50;8.00;;;;;;;9.74;84.04;100410.23;112905;1198;23928;-63
2021/10/15 04:32:02;;;;;;;19.50;7.40;;;;;;;9.74;84.01;100406.84;112988;1198;22426;-58
2021/10/15 04:34:32;;;;;;;23.80;8.00;;;;;;;9.75;83.96;100398.69;112872;1198;24100;-55
2021/10/15 04:37:03;;;;;;;20.00;8.80;;;;;;;9.75;84.10;100391.35;112923;1193;25081;-58
2021/10/15 04:39:34;;;;;;;18.10;7.90;;;;;;;9.75;83.91;100392.55;112964;1198;22458;-58
2021/10/15 04:42:06;;;;;;;23.10;9.50;;;;;;;9.75;84.06;100382.21;113032;1198;25901;-57
2021/10/15 04:44:40;;;;;;;22.50;9.30;;;;;;;9.74;83.96;100380.03;113225;1198;22429;-57
2021/10/15 04:47:13;;;;;;;21.10;9.00;;;;;;;9.74;84.08;100380.27;113207;1190;25408;-56
2021/10/15 04:49:44;;;;;;;22.60;9.30;;;;;;;9.74;83.84;100372.45;113203;1193;25125;-55
2021/10/15 04:52:15;;;;;;;23.50;9.50;;;;;;;9.72;83.93;100373.24;113232;1198;25223;-56
2021/10/15 04:54:48;;;;;;;22.40;10.00;;;;;;;9.72;84.02;100374.61;113236;1198;24900;-57
2021/10/15 04:57:19;;;;;;;21.40;9.50;;;;;;;9.72;84.04;100370.09;113242;1198;22428;-58
2021/10/15 04:59:51;;;;;;;22.10;9.50;;;;;;;9.71;83.93;100365.33;113164;1192;22439;-58
2021/10/15 05:02:22;;;;;;;21.50;9.70;;;;;;;9.71;84.08;100364.20;113187;1193;22426;-55
2021/10/15 05:04:53;;;;;;;22.70;9.60;;;;;;;9.72;84.01;100362.59;113117;1193;22544;-59
2021/10/15 05:07:26;;;;;;;25.50;9.70;;;;;;;9.72;84.18;100364.01;113289;1193;22415;-61
2021/10/15 05:09:57;;;;;;;25.10;11.10;;;;;;;9.72;84.21;100363.30;113346;1198;25067;-58
2021/10/15 05:12:29;;;;;;;22.10;9.80;;;;;;;9.71;84.20;100365.34;113632;1184;22729;-58
2021/10/15 05:15:01;;;;;;;20.90;9.90;;;;;;;9.71;84.21;100364.89;113229;1198;25025;-58
2021/10/15 05:17:32;;;;;;;25.10;10.60;;;;;;;9.70;84.20;100366.44;113067;1193;24090;-59
2021/10/15 05:20:04;;;;;;;27.50;12.40;;;;;;;9.70;84.24;100362.95;113220;1198;22437;-59
2021/10/15 05:22:35;;;;;;;24.10;10.90;;;;;;;9.69;84.28;100364.17;113350;1191;24087;-58
2021/10/15 05:25:09;;;;;;;24.70;11.20;;;;;;;9.68;84.23;100364.22;113158;1193;22443;-60
2021/10/15 05:27:40;;;;;;;24.10;11.40;;;;;;;9.66;84.26;100362.30;113190;1198;22445;-58
2021/10/15 05:30:13;;;;;;;22.80;11.60;;;;;;;9.64;84.12;100357.06;113202;1193;22439;-59
2021/10/15 05:32:44;;;;;;;25.90;12.10;;;;;;;9.61;84.20;100356.80;113228;1198;22494;-59
2021/10/15 05:35:15;;;;;;;28.10;13.30;;;;;;;9.60;84.29;100355.66;113239;1198;22416;-58
2021/10/15 05:37:47;;;;;;;27.50;13.30;;;;;;;9.58;84.25;100356.11;113237;1193;22442;-58
2021/10/15 05:40:19;;;;;;;31.30;13.60;;;;;;;9.55;84.28;100359.79;113279;1190;24071;-59
2021/10/15 05:42:51;;;;;;;26.20;13.10;;;;;;;9.54;84.45;100354.90;113218;1198;25117;-57
2021/10/15 05:45:25;;;;;;;27.80;13.40;;;;;;;9.52;84.46;100348.88;113041;1198;22519;-59
2021/10/15 05:47:57;;;;;;;28.20;13.30;;;;;;;9.50;84.43;100348.80;113146;1198;22716;-60
2021/10/15 05:50:29;;;;;;;29.80;13.80;;;;;;;9.47;84.31;100345.61;113219;1198;22412;-57
2021/10/15 05:53:06;;;;;;;26.60;13.20;;;;;;;9.45;84.38;100344.54;113291;1198;22416;-57
2021/10/15 05:55:44;;;;;;;28.50;12.90;;;;;;;9.44;84.51;100346.33;113210;1198;22610;-59
2021/10/15 06:01:01;;;;;;;27.00;12.80;;;;;;;9.40;84.63;100339.56;112795;1193;22454;-57
2021/10/15 06:03:32;;;;;;;25.10;10.40;;;;;;;9.39;84.71;100332.77;113116;1193;24059;-57
2021/10/15 06:14:33;;;;;;;29.50;13.50;;;;;;;9.36;84.76;100343.83;112753;1201;22411;-59
2021/10/15 06:17:08;;;;;;;29.20;14.20;;;;;;;9.36;84.80;100343.99;112670;1201;26262;-57
2021/10/15 06:19:46;;;;;;;25.80;12.90;;;;;;;9.36;84.82;100344.21;114034;1193;22423;-56
2021/10/15 06:22:17;;;;;;;26.80;10.80;;;;;;;9.37;84.79;100339.58;112760;1200;25117;-56
2021/10/15 06:24:49;;;;;;;25.90;11.80;;;;;;;9.38;84.73;100341.58;112532;1201;26306;-58
2021/10/15 06:27:22;;;;;;;28.50;13.40;;;;;;;9.40;84.81;100339.59;113137;1193;25109;-56
2021/10/15 06:29:54;;;;;;;24.40;11.40;;;;;;;9.42;84.75;100340.61;112896;1200;22904;-57
2021/10/15 06:32:25;;;;;;;29.40;12.30;;;;;;;9.44;84.73;100342.24;112790;1194;25235;-58
2021/10/15 06:34:56;;;;;;;26.20;12.90;;;;;;;9.47;84.59;100339.08;112727;1201;22442;-58
2021/10/15 06:37:27;;;;;;;28.90;13.30;;;;;;;9.50;84.58;100340.70;112682;1201;25117;-57
2021/10/15 06:39:58;;;;;;;23.80;11.40;;;;;;;9.53;84.40;100336.27;113117;1198;22432;-58
2021/10/15 06:42:30;;;;;;;24.20;11.30;;;;;;;9.57;84.54;100342.50;113358;1198;24056;-58
2021/10/15 06:45:01;;;;;;;21.80;10.30;;;;;;;9.62;84.58;100338.44;113083;1198;22457;-57
2021/10/15 06:47:32;;;;;;;23.60;10.60;;;;;;;9.68;84.38;100339.04;113159;1198;25123;-54
2021/10/15 06:50:04;;;;;;;21.90;9.80;;;;;;;9.73;84.30;100333.68;113086;1198;22452;-57
2021/10/15 06:52:46;;;;;;;25.50;11.70;;;;;;;9.78;84.17;100336.80;113232;1198;22562;-57
2021/10/15 06:55:19;;;;;;;22.00;10.80;;;;;;;9.83;84.01;100332.19;113285;1198;26380;-58
2021/10/15 06:57:52;;;;;;;24.40;12.30;;;;;;;9.87;83.90;100333.74;113388;1192;24103;-58
2021/10/15 07:00:23;;;;;;;22.80;10.50;;;;;;;9.92;84.02;100329.10;113263;1198;23779;-56
2021/10/15 07:02:53;;;;;;;20.20;10.20;;;;;;;9.97;83.83;100330.88;113321;1198;22554;-57
2021/10/15 07:05:25;;;;;;;23.60;10.50;;;;;;;10.02;83.73;100332.61;113101;1198;26314;-58
2021/10/15 07:07:56;;;;;;;22.80;9.90;;;;;;;10.07;83.62;100332.94;113153;1198;22419;-56
2021/10/15 07:10:30;;;;;;;20.40;9.60;;;;;;;10.14;83.63;100336.36;113171;1198;22456;-57
2021/10/15 07:13:02;;;;;;;23.00;9.50;;;;;;;10.19;83.59;100336.33;113242;1198;24058;-58
2021/10/15 07:15:33;;;;;;;22.60;10.50;;;;;;;10.24;83.43;100336.39;113191;1198;25030;-58
2021/10/15 07:18:05;;;;;;;20.90;8.80;;;;;;;10.27;83.27;100335.74;113177;1198;22418;-55
2021/10/15 07:20:36;;;;;;;21.80;9.80;;;;;;;10.31;83.13;100328.17;113224;1198;25407;-57
2021/10/15 07:23:08;;;;;;;22.70;9.40;;;;;;;10.34;83.10;100329.11;113062;1190;24073;-57
2021/10/15 07:25:39;;;;;;;18.70;8.20;;;;;;;10.38;82.98;100325.58;113157;1198;25076;-56
2021/10/15 07:28:11;;;;;;;17.60;7.10;;;;;;;10.43;82.81;100326.10;113287;1192;25195;-58
2021/10/15 07:30:42;;;;;;;19.70;8.80;;;;;;;10.51;82.89;100324.77;113205;1198;23760;-58
2021/10/15 07:33:13;;;;;;;17.30;7.80;;;;;;;10.57;82.81;100321.23;113273;1198;22450;-58
2021/10/15 07:35:44;;;;;;;18.40;8.20;;;;;;;10.63;82.64;100314.46;113233;1198;22444;-56
2021/10/15 07:38:15;;;;;;;17.20;7.60;;;;;;;10.70;82.52;100314.14;113192;1193;24078;-58
2021/10/15 07:40:46;;;;;;;16.10;7.10;;;;;;;10.77;82.41;100317.36;113168;1198;25119;-58
2021/10/15 07:43:18;;;;;;;19.20;7.40;;;;;;;10.86;82.30;100319.42;113246;1198;26358;-55
2021/10/15 07:45:49;;;;;;;16.90;6.80;;;;;;;10.94;82.13;100320.35;113281;1194;24164;-56
2021/10/15 07:48:20;;;;;;;16.10;6.70;;;;;;;11.04;81.88;100318.61;113168;1198;22459;-58
2021/10/15 07:50:52;;;;;;;17.70;6.50;;;;;;;11.16;81.85;100319.69;113147;1198;24094;-56
2021/10/15 07:53:23;;;;;;;16.00;5.90;;;;;;;11.27;81.38;100316.73;113268;1198;23269;-57
2021/10/15 07:55:54;;;;;;;15.50;6.40;;;;;;;11.38;81.44;100311.10;113077;1199;22442;-59
2021/10/15 07:58:26;;;;;;;15.50;6.30;;;;;;;11.48;81.27;100316.27;113109;1198;24087;-58
2021/10/15 08:00:59;;;;;;;17.50;7.40;;;;;;;11.57;81.17;100312.75;113247;1198;26688;-58
2021/10/15 08:03:33;;;;;;;14.50;5.80;;;;;;;11.66;80.60;100312.30;113384;1198;22414;-57
2021/10/15 08:06:04;;;;;;;14.30;6.20;;;;;;;11.75;80.61;100305.52;113059;1192;25055;-57
2021/10/15 08:08:35;;;;;;;14.80;5.90;;;;;;;11.81;80.26;100302.54;113026;1198;25125;-57
2021/10/15 08:11:06;;;;;;;14.60;5.80;;;;;;;11.87;79.90;100300.06;113139;1198;23148;-56
2021/10/15 08:13:38;;;;;;;16.10;6.50;;;;;;;11.90;79.63;100297.30;113164;1190;22476;-57
2021/10/15 08:16:08;;;;;;;12.90;5.70;;;;;;;11.91;79.35;100298.40;113104;1191;22438;-57
2021/10/15 08:18:39;;;;;;;13.80;5.90;;;;;;;11.93;79.46;100301.06;113351;1198;22429;-56
2021/10/15 08:21:10;;;;;;;17.10;6.60;;;;;;;11.96;79.01;100301.52;113424;1190;22425;-55
2021/10/15 08:23:43;;;;;;;14.00;6.50;;;;;;;11.99;78.93;100300.81;113172;1198;25246;-56
2021/10/15 08:26:15;;;;;;;16.20;6.20;;;;;;;12.02;78.96;100301.41;113289;1197;22440;-58
2021/10/15 08:28:47;;;;;;;15.20;5.70;;;;;;;12.06;78.85;100300.53;113278;1198;22435;-55
2021/10/15 08:31:19;;;;;;;14.00;6.00;;;;;;;12.09;78.54;100298.30;113138;1198;22433;-55
2021/10/15 08:33:50;;;;;;;13.60;5.80;;;;;;;12.13;78.36;100298.45;113118;1198;23014;-57
2021/10/15 08:36:23;;;;;;;13.60;5.20;;;;;;;12.19;78.37;100290.14;113247;1197;23294;-57
2021/10/15 08:38:54;;;;;;;15.20;5.50;;;;;;;12.26;77.99;100287.58;113334;1198;22544;-57
2021/10/15 08:41:27;;;;;;;14.10;5.30;;;;;;;12.29;77.72;100285.59;113514;1198;22452;-58
2021/10/15 08:43:59;;;;;;;12.90;4.40;;;;;;;12.33;77.79;100284.01;113349;1198;22441;-57
2021/10/15 08:46:31;;;;;;;12.90;5.10;;;;;;;12.37;77.87;100279.74;113300;1198;25129;-58
2021/10/15 08:49:02;;;;;;;11.20;3.60;;;;;;;12.45;77.79;100278.40;113208;1198;22436;-58
2021/10/15 08:51:37;;;;;;;13.10;4.80;;;;;;;12.53;76.76;100276.72;113341;1198;22438;-58
2021/10/15 08:54:09;;;;;;;11.00;4.30;;;;;;;12.60;76.62;100268.55;113462;1192;22439;-59
2021/10/15 08:56:40;;;;;;;13.40;4.90;;;;;;;12.64;76.70;100266.75;113471;1198;23104;-58
2021/10/15 09:00:00;;;;;;;12.80;4.00;;;;;;;12.72;76.77;100262.21;113575;1197;24182;-57
2021/10/15 09:02:32;;;;;;;9.70;3.90;;;;;;;12.80;76.66;100256.14;113540;1192;22427;-58
2021/10/15 09:05:06;;;;;;;11.60;4.30;;;;;;;12.87;76.06;100250.23;113533;1192;25829;-59
2021/10/15 09:07:37;;;;;;;12.10;3.80;;;;;;;12.93;76.09;100249.28;113748;1198;22451;-58
2021/10/15 09:10:16;;;;;;;10.70;3.80;;;;;;;13.00;75.68;100250.73;113370;1198;22436;-61
2021/10/15 09:12:56;;;;;;;13.80;3.10;;;;;;;13.10;74.96;100252.42;113611;1198;22449;-58
2021/10/15 09:15:36;;;;;;;8.60;2.90;;;;;;;13.19;74.44;100249.19;113353;1193;25221;-58
2021/10/15 09:18:14;;;;;;;9.00;3.00;;;;;;;13.27;74.12;100245.63;113454;1198;22421;-58
2021/10/15 09:20:48;;;;;;;7.90;2.20;;;;;;;13.35;74.33;100244.13;113573;1198;22469;-58
2021/10/15 09:23:19;;;;;;;9.80;2.70;;;;;;;13.44;73.59;100243.16;113463;1198;26308;-60
2021/10/15 09:25:50;;;;;;;8.00;2.40;;;;;;;13.52;73.71;100244.55;113456;1198;22469;-59
2021/10/15 09:28:23;;;;;;;7.90;2.10;;;;;;;13.61;73.20;100245.48;113651;1190;22458;-59
2021/10/15 09:30:54;;;;;;;9.30;2.90;;;;;;;13.67;72.83;100245.73;113481;1198;22902;-59
2021/10/15 09:33:27;;;;;;;9.10;2.20;;;;;;;13.75;72.69;100243.08;113421;1197;24532;-60
2021/10/15 09:36:08;;;;;;;7.10;2.10;;;;;;;13.82;72.34;100240.46;113610;1198;22484;-58
2021/10/15 09:38:39;;;;;;;8.40;2.80;;;;;;;13.87;71.45;100244.67;113514;1192;25115;-58
2021/10/15 09:41:30;;;;;;;8.40;2.80;;;;;;;13.87;70.66;100250.14;113482;1198;25233;-59
2021/10/15 09:44:01;;;;;;;7.10;2.10;;;;;;;13.85;71.04;100243.29;113487;1192;22447;-59
2021/10/15 09:46:32;;;;;;;10.40;2.80;;;;;;;13.85;70.37;100245.02;113385;1193;24063;-58
2021/10/15 09:49:04;;;;;;;6.90;2.50;;;;;;;13.85;70.18;100244.73;113400;1198;22435;-58
2021/10/15 09:51:35;;;;;;;7.10;2.00;;;;;;;13.83;70.53;100237.52;113504;1198;22449;-59
2021/10/15 09:54:14;;;;;;;7.80;2.20;;;;;;;13.78;70.23;100237.38;113370;1191;22470;-60
2021/10/15 09:56:49;;;;;;;11.70;3.00;;;;;;;13.73;70.27;100235.56;113670;1198;25085;-58
2021/10/15 09:59:21;;;;;;;8.20;2.50;;;;;;;13.72;70.16;100234.33;113455;1198;22915;-62
2021/10/15 10:01:52;;;;;;;7.80;2.30;;;;;;;13.74;70.53;100232.76;113344;1198;22418;-61
2021/10/15 10:04:23;;;;;;;10.00;2.80;;;;;;;13.78;70.33;100231.52;113375;1198;23805;-58
2021/10/15 10:06:56;;;;;;;8.40;2.90;;;;;;;13.83;70.11;100223.59;113357;1198;22469;-57
2021/10/15 10:09:27;;;;;;;8.50;2.40;;;;;;;13.88;70.13;100219.42;113361;1198;22425;-59
2021/10/15 10:11:58;;;;;;;8.70;2.70;;;;;;;13.94;69.95;100216.86;113370;1192;22552;-60
2021/10/15 10:14:31;;;;;;;8.20;2.20;;;;;;;14.01;69.61;100216.33;113421;1198;24040;-58
2021/10/15 10:17:03;;;;;;;6.20;2.00;;;;;;;14.07;69.55;100214.92;113496;1198;25149;-58
2021/10/15 10:19:37;;;;;;;7.30;2.10;;;;;;;14.13;69.28;100208.58;113421;1198;22447;-59
2021/10/15 10:22:08;;;;;;;7.90;2.70;;;;;;;14.18;68.83;100204.20;113448;1198;24081;-61
2021/10/15 10:24:48;;;;;;;8.60;3.20;;;;;;;14.21;68.54;100208.61;113410;1198;25134;-61
2021/10/15 10:27:34;;;;;;;7.10;2.10;;;;;;;14.24;67.28;100200.85;113525;1198;22467;-60
2021/10/15 10:30:06;;;;;;;8.80;2.10;;;;;;;14.24;67.83;100196.00;113520;1198;23642;-58
2021/10/15 10:32:37;;;;;;;6.10;1.90;;;;;;;14.26;68.09;100192.59;113401;1198;22453;-60
2021/10/15 10:35:26;;;;;;;7.20;2.40;;;;;;;14.28;67.75;100192.64;113461;1198;23105;-60
2021/10/15 10:38:30;;;;;;;7.50;2.20;;;;;;;14.31;67.59;100186.45;113627;1198;24124;-59
2021/10/15 10:41:30;;;;;;;8.00;2.40;;;;;;;14.35;67.10;100180.44;113041;1201;23596;-59
2021/10/15 10:44:15;;;;;;;5.10;1.70;;;;;;;14.39;66.87;100174.80;112872;1193;22502;-58
2021/10/15 10:47:16;;;;;;;6.50;2.00;;;;;;;14.42;67.01;100171.63;113104;1200;25132;-59
2021/10/15 10:50:10;;;;;;;8.70;2.20;;;;;;;14.47;67.13;100169.19;113009;1201;26447;-59
2021/10/15 10:52:55;;;;;;;7.40;2.30;;;;;;;14.45;66.61;100169.85;112900;1193;25134;-58
2021/10/15 10:55:39;;;;;;;7.30;2.20;;;;;;;14.42;66.27;100171.47;112868;1201;26323;-60
2021/10/15 10:58:32;;;;;;;6.10;1.70;;;;;;;14.39;66.64;100170.54;113052;1199;24159;-60
2021/10/15 11:01:28;;;;;;;7.00;2.00;;;;;;;14.38;66.32;100166.27;113063;1201;22419;-57
2021/10/15 11:04:00;;;;;;;6.80;2.40;;;;;;;14.33;65.90;100167.22;113074;1201;22420;-60
2021/10/15 11:06:57;;;;;;;6.20;1.70;;;;;;;14.26;66.13;100158.69;113057;1201;24158;-59
2021/10/15 11:09:34;;;;;;;6.70;2.60;;;;;;;14.19;65.95;100154.75;113218;1201;24475;-61
2021/10/15 11:12:18;;;;;;;5.40;1.70;;;;;;;14.14;65.94;100153.95;112915;1179;22414;-58
2021/10/15 11:14:55;;;;;;;6.30;2.20;;;;;;;14.11;66.20;100149.88;113023;1201;22457;-59
2021/10/15 11:17:33;;;;;;;6.40;1.70;;;;;;;14.15;66.45;100149.47;113076;1201;22512;-58
2021/10/15 11:20:18;;;;;;;4.70;1.90;;;;;;;14.30;66.33;100143.91;113374;1199;22440;-57
2021/10/15 11:22:54;;;;;;;5.40;1.50;;;;;;;14.49;66.24;100141.77;113599;1198;25216;-60
2021/10/15 11:25:27;;;;;;;6.50;1.80;;;;;;;14.60;65.69;100140.91;113316;1200;22443;-59
2021/10/15 11:28:01;;;;;;;6.30;1.90;;;;;;;14.63;65.28;100133.05;113295;1200;22608;-56
2021/10/15 11:30:37;;;;;;;6.10;1.70;;;;;;;14.65;64.89;100132.95;113330;1194;22583;-58
2021/10/15 11:33:13;;;;;;;5.30;1.80;;;;;;;14.68;65.02;100126.26;113299;1200;24552;-59
2021/10/15 11:35:49;;;;;;;4.80;1.40;;;;;;;14.77;65.10;100129.59;113370;1199;22425;-59
2021/10/15 11:38:25;;;;;;;4.50;1.20;;;;;;;14.81;64.78;100127.54;113225;1200;25146;-57
2021/10/15 11:40:58;;;;;;;4.70;1.60;;;;;;;14.81;64.67;100126.37;113270;1192;22465;-57
2021/10/15 11:43:31;;;;;;;5.40;1.60;;;;;;;14.79;64.39;100120.80;113226;1200;23295;-58
2021/10/15 11:46:04;;;;;;;6.70;1.60;;;;;;;14.78;64.46;100121.06;113295;1200;22454;-59
2021/10/15 11:48:39;;;;;;;6.20;1.30;;;;;;;14.74;64.09;100117.08;113322;1199;22465;-59
2021/10/15 11:51:12;;;;;;;5.60;1.50;;;;;;;14.72;64.37;100116.25;113328;1200;22421;-57
2021/10/15 11:53:45;;;;;;;4.70;1.60;;;;;;;14.74;64.77;100119.73;113364;1200;24662;-60
2021/10/15 11:56:20;;;;;;;4.80;1.40;;;;;;;14.77;64.12;100116.41;113266;1200;25007;-58